createdAt,value
2018-01-24T00:01:09.083Z,7.30
2018-01-24T00:03:37.391Z,8.15
2018-01-24T00:06:05.481Z,8.35
2018-01-24T00:08:33.568Z,7.60
2018-01-24T00:11:01.605Z,7.30
2018-01-24T00:13:29.802Z,7.70
2018-01-24T00:15:57.977Z,6.75
2018-01-24T00:18:26.063Z,6.78
2018-01-24T00:20:54.434Z,9.32
2018-01-24T00:23:23.243Z,8.20
2018-01-24T00:25:51.538Z,6.57
2018-01-24T00:28:19.820Z,8.40
2018-01-24T00:30:48.138Z,6.32
2018-01-24T00:33:17.298Z,8.00
2018-01-24T00:35:45.675Z,7.68
2018-01-24T00:38:13.835Z,7.60
2018-01-24T00:40:42.143Z,7.35
2018-01-24T00:43:10.340Z,7.50
2018-01-24T00:45:38.614Z,6.18
2018-01-24T00:48:06.658Z,7.50
2018-01-24T00:50:34.800Z,6.55
2018-01-24T00:53:03.041Z,8.07
2018-01-24T00:55:31.203Z,7.50
2018-01-24T00:57:59.395Z,9.40
2018-01-24T01:00:27.885Z,7.22
2018-01-24T01:02:56.301Z,9.02
2018-01-24T01:05:24.620Z,7.80
2018-01-24T01:07:52.747Z,9.95
2018-01-24T01:10:21.118Z,9.63
2018-01-24T01:12:49.303Z,9.95
2018-01-24T01:15:17.579Z,10.27
2018-01-24T01:17:45.661Z,10.30
2018-01-24T01:20:13.955Z,9.95
2018-01-24T01:22:42.055Z,9.50
2018-01-24T01:25:10.199Z,10.23
2018-01-24T01:27:38.239Z,11.10
2018-01-24T01:30:06.441Z,10.70
2018-01-24T01:32:34.741Z,9.60
2018-01-24T01:35:03.020Z,9.75
2018-01-24T01:37:31.200Z,10.70
2018-01-24T01:39:59.477Z,10.82
2018-01-24T01:42:27.718Z,9.02
2018-01-24T01:44:55.938Z,8.57
2018-01-24T01:47:24.340Z,9.07
2018-01-24T01:49:52.697Z,9.10
2018-01-24T01:52:20.993Z,7.60
2018-01-24T01:54:49.335Z,8.50
2018-01-24T01:57:17.456Z,8.43
2018-01-24T01:59:45.736Z,7.15
2018-01-24T02:02:13.745Z,8.48
2018-01-24T02:04:41.835Z,7.78
2018-01-24T02:07:09.885Z,8.38
2018-01-24T02:09:37.980Z,7.85
2018-01-24T02:12:06.000Z,8.27
2018-01-24T02:14:34.134Z,7.97
2018-01-24T02:17:02.254Z,8.15
2018-01-24T02:19:30.383Z,8.00
2018-01-24T02:21:58.574Z,7.65
2018-01-24T02:24:26.783Z,6.85
2018-01-24T02:26:55.020Z,6.10
2018-01-24T02:29:23.179Z,6.75
2018-01-24T02:31:51.347Z,6.85
2018-01-24T02:34:19.440Z,6.78
2018-01-24T02:36:47.416Z,6.10
2018-01-24T02:39:16.422Z,6.65
2018-01-24T02:41:44.470Z,6.15
2018-01-24T02:44:12.447Z,5.85
2018-01-24T02:46:40.538Z,7.65
2018-01-24T02:49:08.478Z,7.22
2018-01-24T02:51:36.604Z,7.00
2018-01-24T02:54:04.536Z,6.65
2018-01-24T02:56:32.616Z,6.53
2018-01-24T02:59:00.772Z,7.10
2018-01-24T03:01:28.855Z,8.13
2018-01-24T03:03:56.854Z,6.20
2018-01-24T03:06:25.040Z,7.20
2018-01-24T03:08:53.117Z,6.90
2018-01-24T03:11:21.323Z,7.55
2018-01-24T03:13:49.381Z,6.90
2018-01-24T03:16:17.477Z,5.35
2018-01-24T03:18:45.500Z,6.53
2018-01-24T03:21:13.606Z,6.00
2018-01-24T03:23:41.640Z,6.32
2018-01-24T03:26:09.677Z,5.95
2018-01-24T03:28:37.620Z,8.13
2018-01-24T03:31:05.644Z,7.43
2018-01-24T03:33:33.901Z,6.10
2018-01-24T03:36:02.058Z,7.55
2018-01-24T03:38:30.236Z,7.18
2018-01-24T03:40:58.360Z,7.75
2018-01-24T03:43:26.514Z,7.30
2018-01-24T03:45:54.786Z,7.43
2018-01-24T03:48:22.776Z,8.00
2018-01-24T03:50:50.819Z,6.65
2018-01-24T03:53:18.841Z,6.37
2018-01-24T03:55:46.945Z,5.85
2018-01-24T03:58:14.920Z,6.22
2018-01-24T04:00:43.015Z,7.15
2018-01-24T04:03:10.989Z,6.85
2018-01-24T04:05:39.098Z,7.75
2018-01-24T04:08:07.082Z,6.97
2018-01-24T04:10:35.238Z,7.15
2018-01-24T04:13:03.418Z,6.72
2018-01-24T04:15:31.635Z,6.57
2018-01-24T04:17:59.789Z,6.05
2018-01-24T04:20:27.977Z,5.75
2018-01-24T04:22:56.197Z,6.07
2018-01-24T04:25:24.321Z,7.18
2018-01-24T04:27:52.282Z,7.82
2018-01-24T04:30:20.464Z,10.25
2018-01-24T04:32:48.441Z,7.75
2018-01-24T04:35:16.528Z,7.32
2018-01-24T04:37:44.500Z,7.25
2018-01-24T04:40:12.561Z,7.47
2018-01-24T04:42:40.504Z,7.93
2018-01-24T04:45:08.503Z,7.40
2018-01-24T04:47:36.602Z,7.50
2018-01-24T04:50:04.769Z,7.70
2018-01-24T04:52:32.929Z,7.95
2018-01-24T04:55:01.051Z,7.65
2018-01-24T04:57:29.241Z,6.85
2018-01-24T04:59:57.314Z,6.70
2018-01-24T05:02:25.426Z,8.52
2018-01-24T05:04:53.414Z,7.40
2018-01-24T05:07:21.483Z,7.72
2018-01-24T05:09:49.463Z,7.57
2018-01-24T05:12:17.564Z,5.60
2018-01-24T05:14:45.541Z,5.78
2018-01-24T05:17:13.633Z,5.45
2018-01-24T05:19:41.669Z,5.62
2018-01-24T05:22:09.730Z,5.65
2018-01-24T05:24:38.100Z,6.47
2018-01-24T05:27:06.206Z,5.70
2018-01-24T05:29:34.379Z,7.75
2018-01-24T05:32:02.585Z,7.45
2018-01-24T05:34:30.761Z,9.15
2018-01-24T05:36:58.803Z,9.20
2018-01-24T05:39:26.806Z,8.45
2018-01-24T05:41:54.858Z,7.32
2018-01-24T05:44:22.863Z,7.50
2018-01-24T05:46:50.980Z,6.32
2018-01-24T05:49:18.936Z,10.52
2018-01-24T05:51:47.071Z,12.40
2018-01-24T05:54:15.056Z,13.88
2018-01-24T05:56:43.137Z,12.07
2018-01-24T05:59:11.114Z,9.75
2018-01-24T06:01:39.263Z,10.60
2018-01-24T06:04:07.493Z,7.78
2018-01-24T06:06:35.861Z,7.30
2018-01-24T06:09:03.916Z,5.95
2018-01-24T06:11:32.046Z,7.37
2018-01-24T06:14:00.132Z,8.00
2018-01-24T06:16:28.194Z,8.35
2018-01-24T06:18:56.187Z,10.82
2018-01-24T06:21:24.223Z,12.27
2018-01-24T06:23:52.178Z,10.80
2018-01-24T06:26:20.208Z,11.23
2018-01-24T06:28:48.243Z,12.35
2018-01-24T06:31:16.287Z,12.05
2018-01-24T06:33:44.236Z,12.00
2018-01-24T06:36:12.294Z,14.00
2018-01-24T06:38:41.396Z,13.15
2018-01-24T06:41:09.562Z,14.18
2018-01-24T06:43:37.840Z,14.52
2018-01-24T06:46:05.914Z,13.35
2018-01-24T06:48:33.876Z,12.07
2018-01-24T06:51:02.063Z,12.95
2018-01-24T06:53:30.090Z,14.10
2018-01-24T06:55:58.952Z,12.93
2018-01-24T06:58:26.893Z,12.80
2018-01-24T07:00:54.836Z,13.75
2018-01-24T07:03:22.922Z,13.57
2018-01-24T07:05:50.852Z,13.02
2018-01-24T07:08:18.898Z,11.43
2018-01-24T07:10:46.861Z,8.50
2018-01-24T07:13:14.877Z,10.23
2018-01-24T07:15:43.097Z,8.73
2018-01-24T07:18:11.282Z,9.30
2018-01-24T07:20:39.261Z,7.60
2018-01-24T07:23:07.457Z,7.50
2018-01-24T07:25:35.476Z,7.28
2018-01-24T07:28:03.583Z,7.82
2018-01-24T07:30:31.606Z,7.40
2018-01-24T07:32:59.730Z,7.12
2018-01-24T07:35:27.719Z,7.35
2018-01-24T07:37:55.787Z,8.60
2018-01-24T07:40:23.720Z,8.63
2018-01-24T07:42:51.810Z,7.80
2018-01-24T07:45:19.857Z,7.97
2018-01-24T07:47:48.129Z,8.82
2018-01-24T07:50:16.192Z,8.18
2018-01-24T07:52:44.497Z,8.52
2018-01-24T07:55:12.881Z,8.73
2018-01-24T07:57:41.266Z,9.70
2018-01-24T08:00:09.479Z,11.90
2018-01-24T08:02:37.719Z,11.43
2018-01-24T08:05:05.861Z,9.85
2018-01-24T08:07:34.047Z,9.88
2018-01-24T08:10:02.141Z,10.48
2018-01-24T08:12:30.281Z,9.73
2018-01-24T08:14:58.277Z,8.30
2018-01-24T08:17:26.374Z,8.13
2018-01-24T08:19:54.498Z,7.18
2018-01-24T08:22:22.600Z,6.80
2018-01-24T08:24:50.655Z,6.80
2018-01-24T08:27:18.677Z,7.10
2018-01-24T08:29:46.662Z,6.95
2018-01-24T08:32:14.762Z,7.35
2018-01-24T08:34:42.762Z,6.80
2018-01-24T08:37:10.822Z,7.68
2018-01-24T08:39:38.794Z,7.30
2018-01-24T08:42:06.854Z,8.02
2018-01-24T08:44:34.852Z,7.80
2018-01-24T08:47:02.897Z,8.30
2018-01-24T08:49:30.916Z,7.82
2018-01-24T08:51:58.981Z,7.95
2018-01-24T08:54:26.996Z,7.30
2018-01-24T08:56:55.060Z,8.23
2018-01-24T08:59:23.139Z,7.70
2018-01-24T09:01:51.181Z,6.72
2018-01-24T09:04:19.288Z,8.52
2018-01-24T09:06:47.312Z,8.25
2018-01-24T09:09:15.562Z,6.65
2018-01-24T09:11:43.682Z,8.40
2018-01-24T09:14:11.791Z,7.35
2018-01-24T09:16:39.974Z,7.45
2018-01-24T09:19:08.209Z,6.85
2018-01-24T09:21:36.613Z,7.37
2018-01-24T09:24:04.870Z,7.28
2018-01-24T09:26:33.518Z,7.00
2018-01-24T09:29:01.732Z,6.90
2018-01-24T09:31:29.855Z,7.43
2018-01-24T09:33:57.982Z,6.20
2018-01-24T09:36:26.195Z,6.22
2018-01-24T09:38:54.382Z,7.78
2018-01-24T09:41:22.695Z,7.87
2018-01-24T09:43:50.869Z,9.00
2018-01-24T09:46:19.086Z,6.93
2018-01-24T09:48:47.217Z,6.72
2018-01-24T09:51:15.275Z,7.05
2018-01-24T09:53:43.373Z,6.93
2018-01-24T09:56:11.379Z,8.10
2018-01-24T09:58:39.567Z,5.10
2018-01-24T10:01:07.590Z,5.62
2018-01-24T10:03:35.583Z,5.62
2018-01-24T10:06:03.498Z,5.85
2018-01-24T10:08:31.698Z,6.50
2018-01-24T10:10:59.726Z,7.60
2018-01-24T10:13:28.806Z,6.03
2018-01-24T10:15:56.876Z,6.15
2018-01-24T10:18:25.032Z,5.68
2018-01-24T10:20:53.032Z,5.30
2018-01-24T10:23:21.072Z,5.65
2018-01-24T10:25:49.066Z,5.80
2018-01-24T10:28:17.126Z,5.82
2018-01-24T10:30:45.228Z,7.20
2018-01-24T10:33:13.345Z,5.37
2018-01-24T10:35:41.299Z,5.60
2018-01-24T10:38:09.419Z,5.07
2018-01-24T10:40:37.494Z,5.65
2018-01-24T10:43:05.615Z,7.15
2018-01-24T10:45:33.558Z,6.05
2018-01-24T10:48:01.681Z,5.75
2018-01-24T10:50:29.719Z,5.28
2018-01-24T10:52:57.889Z,4.72
2018-01-24T10:55:25.940Z,5.47
2018-01-24T10:57:54.020Z,5.60
2018-01-24T11:00:21.993Z,5.75
2018-01-24T11:02:50.078Z,5.43
2018-01-24T11:05:18.077Z,4.97
2018-01-24T11:07:46.157Z,5.00
2018-01-24T11:10:14.177Z,5.55
2018-01-24T11:12:42.998Z,5.50
2018-01-24T11:15:11.010Z,4.15
2018-01-24T11:17:39.150Z,3.92
2018-01-24T11:20:07.330Z,4.10
2018-01-24T11:22:35.337Z,4.43
2018-01-24T11:25:03.498Z,4.30
2018-01-24T11:27:31.504Z,3.10
2018-01-24T11:29:59.570Z,3.53
2018-01-24T11:32:27.587Z,3.12
2018-01-24T11:34:55.654Z,3.10
2018-01-24T11:37:23.580Z,3.95
2018-01-24T11:39:51.718Z,4.95
2018-01-24T11:42:19.801Z,5.30
2018-01-24T11:44:47.966Z,3.87
2018-01-24T11:47:16.036Z,4.10
2018-01-24T11:49:44.012Z,4.20
2018-01-24T11:52:12.236Z,4.53
2018-01-24T11:54:40.197Z,4.55
2018-01-24T11:57:08.754Z,6.80
2018-01-24T11:59:36.934Z,7.45
2018-01-24T12:02:05.082Z,5.53
2018-01-24T12:04:33.085Z,6.95
2018-01-24T12:07:01.239Z,6.00
2018-01-24T12:09:29.425Z,6.80
2018-01-24T12:11:57.426Z,6.13
2018-01-24T12:14:25.426Z,4.90
2018-01-24T12:16:53.525Z,4.57
2018-01-24T12:19:21.703Z,5.35
2018-01-24T12:21:49.707Z,4.50
2018-01-24T12:24:17.846Z,5.40
2018-01-24T12:26:45.875Z,5.00
2018-01-24T12:29:13.876Z,4.40
2018-01-24T12:31:41.901Z,4.53
2018-01-24T12:34:10.160Z,4.22
2018-01-24T12:36:38.267Z,4.15
2018-01-24T12:39:06.454Z,4.12
2018-01-24T12:41:34.546Z,4.80
2018-01-24T12:44:02.749Z,3.80
2018-01-24T12:46:30.943Z,4.05
2018-01-24T12:48:59.084Z,3.53
2018-01-24T12:51:27.271Z,4.07
2018-01-24T12:53:55.400Z,4.00
2018-01-24T12:56:23.555Z,4.50
2018-01-24T12:58:51.622Z,3.70
2018-01-24T13:01:19.721Z,3.75
2018-01-24T13:03:47.728Z,4.30
2018-01-24T13:06:15.708Z,4.12
2018-01-24T13:08:43.629Z,3.80
2018-01-24T13:11:11.568Z,4.00
2018-01-24T13:13:39.649Z,3.50
2018-01-24T13:16:07.628Z,3.80
2018-01-24T13:18:35.589Z,3.97
2018-01-24T13:21:03.549Z,3.70
2018-01-24T13:23:31.510Z,3.92
2018-01-24T13:25:59.518Z,3.47
2018-01-24T13:28:27.422Z,3.55
2018-01-24T13:30:55.419Z,4.30
2018-01-24T13:33:23.607Z,3.70
2018-01-24T13:35:51.646Z,3.00
2018-01-24T13:38:19.642Z,3.40
2018-01-24T13:40:47.662Z,2.90
2018-01-24T13:43:15.549Z,3.60
2018-01-24T13:45:43.582Z,3.35
2018-01-24T13:48:11.590Z,3.00
2018-01-24T13:50:39.541Z,3.28
2018-01-24T13:53:07.549Z,3.95
2018-01-24T13:55:35.585Z,4.00
2018-01-24T13:58:03.594Z,3.60
2018-01-24T14:00:31.575Z,4.53
2018-01-24T14:02:59.575Z,5.93
2018-01-24T14:05:27.555Z,5.85
2018-01-24T14:07:55.512Z,5.50
2018-01-24T14:10:23.481Z,4.30
2018-01-24T14:12:51.420Z,6.55
2018-01-24T14:15:19.401Z,5.93
2018-01-24T14:17:47.361Z,5.50
2018-01-24T14:20:15.329Z,5.03
2018-01-24T14:22:43.261Z,5.65
2018-01-24T14:25:11.242Z,5.93
2018-01-24T14:27:39.242Z,6.05
2018-01-24T14:30:07.234Z,6.93
2018-01-24T14:32:35.246Z,6.97
2018-01-24T14:35:03.236Z,6.65
2018-01-24T14:37:31.176Z,6.62
2018-01-24T14:39:59.178Z,8.50
2018-01-24T14:42:27.085Z,6.35
2018-01-24T14:44:55.225Z,6.03
2018-01-24T14:47:23.348Z,6.93
2018-01-24T14:49:51.387Z,6.87
2018-01-24T14:52:19.315Z,6.50
2018-01-24T14:54:47.315Z,7.03
2018-01-24T14:57:15.263Z,6.15
2018-01-24T14:59:43.222Z,5.28
2018-01-24T15:02:11.143Z,6.43
2018-01-24T15:04:39.166Z,5.68
2018-01-24T15:07:07.225Z,5.85
2018-01-24T15:09:35.375Z,6.05
2018-01-24T15:12:04.151Z,5.20
2018-01-24T15:14:32.139Z,5.75
2018-01-24T15:17:00.306Z,5.25
2018-01-24T15:19:28.287Z,5.80
2018-01-24T15:21:56.306Z,4.95
2018-01-24T15:24:24.334Z,5.37
2018-01-24T15:26:52.380Z,5.35
2018-01-24T15:29:20.386Z,5.82
2018-01-24T15:31:48.372Z,5.45
2018-01-24T15:34:16.363Z,6.78
2018-01-24T15:36:44.376Z,5.25
2018-01-24T15:39:12.366Z,6.22
2018-01-24T15:41:40.425Z,5.53
2018-01-24T15:44:08.416Z,5.20
2018-01-24T15:46:37.581Z,6.20
2018-01-24T15:49:05.738Z,6.90
2018-01-24T15:51:33.899Z,6.25
2018-01-24T15:54:02.063Z,6.12
2018-01-24T15:56:30.145Z,6.65
2018-01-24T15:58:58.241Z,6.20
2018-01-24T16:01:26.319Z,6.65
2018-01-24T16:03:54.319Z,6.00
2018-01-24T16:06:22.396Z,5.85
2018-01-24T16:08:50.343Z,6.25
2018-01-24T16:11:18.394Z,7.10
2018-01-24T16:13:46.375Z,7.20
2018-01-24T16:16:14.534Z,6.87
2018-01-24T16:18:42.594Z,6.70
2018-01-24T16:21:10.618Z,6.45
2018-01-24T16:23:38.578Z,7.30
2018-01-24T16:26:06.566Z,6.82
2018-01-24T16:28:34.718Z,8.48
2018-01-24T16:31:02.800Z,9.63
2018-01-24T16:33:30.731Z,8.20
2018-01-24T16:35:58.760Z,9.50
2018-01-24T16:38:26.995Z,9.88
2018-01-24T16:40:55.101Z,10.63
2018-01-24T16:43:23.108Z,10.70
2018-01-24T16:45:51.232Z,10.60
2018-01-24T16:48:19.253Z,9.60
2018-01-24T16:50:47.218Z,10.10
2018-01-24T16:53:15.274Z,10.40
2018-01-24T16:55:43.317Z,11.63
2018-01-24T16:58:11.337Z,9.88
2018-01-24T17:00:39.325Z,9.43
2018-01-24T17:03:07.566Z,8.93
2018-01-24T17:05:35.796Z,8.73
2018-01-24T17:08:03.808Z,8.63
2018-01-24T17:10:31.949Z,8.00
2018-01-24T17:13:00.031Z,9.48
2018-01-24T17:15:28.856Z,9.10
2018-01-24T17:17:56.797Z,8.65
2018-01-24T17:20:24.851Z,8.80
2018-01-24T17:22:52.851Z,9.25
2018-01-24T17:25:20.833Z,8.23
2018-01-24T17:27:48.873Z,8.75
2018-01-24T17:30:16.788Z,9.10
2018-01-24T17:32:44.804Z,9.20
2018-01-24T17:35:12.755Z,7.75
2018-01-24T17:37:40.746Z,7.87
2018-01-24T17:40:08.757Z,8.70
2018-01-24T17:42:36.781Z,9.35
2018-01-24T17:45:05.008Z,10.05
2018-01-24T17:47:33.272Z,10.75
2018-01-24T17:50:01.293Z,9.32
2018-01-24T17:52:29.607Z,9.35
2018-01-24T17:54:57.618Z,10.25
2018-01-24T17:57:25.682Z,10.40
2018-01-24T17:59:53.656Z,10.75
2018-01-24T18:02:21.636Z,10.80
2018-01-24T18:04:49.665Z,11.75
2018-01-24T18:07:17.779Z,12.57
2018-01-24T18:09:45.792Z,11.68
2018-01-24T18:12:13.934Z,12.07
2018-01-24T18:14:41.905Z,12.23
2018-01-24T18:17:09.977Z,13.40
2018-01-24T18:19:37.964Z,11.35
2018-01-24T18:22:06.006Z,12.80
2018-01-24T18:24:34.075Z,13.50
2018-01-24T18:27:02.140Z,14.02
2018-01-24T18:29:30.119Z,12.65
2018-01-24T18:31:58.078Z,13.43
2018-01-24T18:34:26.027Z,13.82
2018-01-24T18:36:54.171Z,14.45
2018-01-24T18:39:22.150Z,12.90
2018-01-24T18:41:50.250Z,13.48
2018-01-24T18:44:18.252Z,12.37
2018-01-24T18:46:46.351Z,11.68
2018-01-24T18:49:14.351Z,11.30
2018-01-24T18:51:42.432Z,10.73
2018-01-24T18:54:10.433Z,10.40
2018-01-24T18:56:38.630Z,11.55
2018-01-24T18:59:06.683Z,11.12
2018-01-24T19:01:34.984Z,10.18
2018-01-24T19:04:03.017Z,9.85
2018-01-24T19:06:31.097Z,9.80
2018-01-24T19:08:59.185Z,11.00
2018-01-24T19:11:27.255Z,11.15
2018-01-24T19:13:55.290Z,11.63
2018-01-24T19:16:23.396Z,12.50
2018-01-24T19:18:51.438Z,11.40
2018-01-24T19:21:19.561Z,12.95
2018-01-24T19:23:47.661Z,15.82
2018-01-24T19:26:15.690Z,16.62
2018-01-24T19:28:43.815Z,16.17
2018-01-24T19:31:11.794Z,17.02
2018-01-24T19:33:39.967Z,15.70
2018-01-24T19:36:07.898Z,13.80
2018-01-24T19:38:35.997Z,12.82
2018-01-24T19:41:03.995Z,12.07
2018-01-24T19:43:32.211Z,14.23
2018-01-24T19:46:00.147Z,13.38
2018-01-24T19:48:28.249Z,13.82
2018-01-24T19:50:56.289Z,15.32
2018-01-24T19:53:24.409Z,15.13
2018-01-24T19:55:52.476Z,14.43
2018-01-24T19:58:20.652Z,13.07
2018-01-24T20:00:48.670Z,14.68
2018-01-24T20:03:16.850Z,14.82
2018-01-24T20:05:44.918Z,15.63
2018-01-24T20:08:13.170Z,16.15
2018-01-24T20:10:41.189Z,16.77
2018-01-24T20:13:09.219Z,19.90
2018-01-24T20:15:37.199Z,18.35
2018-01-24T20:18:05.404Z,17.08
2018-01-24T20:20:33.400Z,17.58
2018-01-24T20:23:01.399Z,16.70
2018-01-24T20:25:29.503Z,17.95
2018-01-24T20:27:57.583Z,15.80
2018-01-24T20:30:25.623Z,17.37
2018-01-24T20:32:53.702Z,17.83
2018-01-24T20:35:21.733Z,16.40
2018-01-24T20:37:49.895Z,15.90
2018-01-24T20:40:17.875Z,14.15
2018-01-24T20:42:45.995Z,15.98
2018-01-24T20:45:14.008Z,14.98
2018-01-24T20:47:42.077Z,14.75
2018-01-24T20:50:10.138Z,13.55
2018-01-24T20:52:38.318Z,15.73
2018-01-24T20:55:06.307Z,13.85
2018-01-24T20:57:34.382Z,13.98
2018-01-24T21:00:02.344Z,15.70
2018-01-24T21:02:30.316Z,13.20
2018-01-24T21:04:58.366Z,13.00
2018-01-24T21:07:26.404Z,13.27
2018-01-24T21:09:54.439Z,13.10
2018-01-24T21:12:22.485Z,14.75
2018-01-24T21:14:50.558Z,16.08
2018-01-24T21:17:18.699Z,14.90
2018-01-24T21:19:46.959Z,16.50
2018-01-24T21:22:14.974Z,14.07
2018-01-24T21:24:42.995Z,13.57
2018-01-24T21:27:10.994Z,12.25
2018-01-24T21:29:39.096Z,12.37
2018-01-24T21:32:07.060Z,12.20
2018-01-24T21:34:35.094Z,12.40
2018-01-24T21:37:03.099Z,13.05
2018-01-24T21:39:31.235Z,11.80
2018-01-24T21:41:59.214Z,11.48
2018-01-24T21:44:27.297Z,13.52
2018-01-24T21:46:55.442Z,12.05
2018-01-24T21:49:23.433Z,11.48
2018-01-24T21:51:51.364Z,11.48
2018-01-24T21:54:19.544Z,14.55
2018-01-24T21:56:47.564Z,13.00
2018-01-24T21:59:15.605Z,11.48
2018-01-24T22:01:43.624Z,12.52
2018-01-24T22:04:11.660Z,11.18
2018-01-24T22:06:39.607Z,12.20
2018-01-24T22:09:07.660Z,12.37
2018-01-24T22:11:35.706Z,12.27
2018-01-24T22:14:03.754Z,11.80
2018-01-24T22:16:31.758Z,11.68
2018-01-24T22:18:59.908Z,11.00
2018-01-24T22:21:28.247Z,12.07
2018-01-24T22:23:56.347Z,12.43
2018-01-24T22:26:24.391Z,12.35
2018-01-24T22:28:52.450Z,11.30
2018-01-24T22:31:20.667Z,11.98
2018-01-24T22:33:48.888Z,11.80
2018-01-24T22:36:16.900Z,11.45
2018-01-24T22:38:44.993Z,9.93
2018-01-24T22:41:13.032Z,11.27
2018-01-24T22:43:41.233Z,11.70
2018-01-24T22:46:09.232Z,11.77
2018-01-24T22:48:37.311Z,10.55
2018-01-24T22:51:05.372Z,9.52
2018-01-24T22:53:33.506Z,10.70
2018-01-24T22:56:01.485Z,10.93
2018-01-24T22:58:29.718Z,10.32
2018-01-24T23:00:57.798Z,10.23
2018-01-24T23:03:25.821Z,10.75
2018-01-24T23:05:53.789Z,10.95
2018-01-24T23:08:21.815Z,11.27
2018-01-24T23:10:49.840Z,9.40
2018-01-24T23:13:18.135Z,9.57
2018-01-24T23:15:46.310Z,10.85
2018-01-24T23:18:14.526Z,10.68
2018-01-24T23:20:42.716Z,10.38
2018-01-24T23:23:10.997Z,9.18
2018-01-24T23:25:38.999Z,9.07
2018-01-24T23:28:07.194Z,9.95
2018-01-24T23:30:35.291Z,9.52
2018-01-24T23:33:03.420Z,10.55
2018-01-24T23:35:31.572Z,11.70
2018-01-24T23:37:59.668Z,8.50
2018-01-24T23:40:28.267Z,8.65
2018-01-24T23:42:56.353Z,9.38
2018-01-24T23:45:24.654Z,9.40
2018-01-24T23:47:52.861Z,10.52
2018-01-24T23:50:21.037Z,9.40
2018-01-24T23:52:49.132Z,9.75
2018-01-24T23:55:17.430Z,9.10
2018-01-24T23:57:45.819Z,8.95
